Flight Track Log - Related Links

Times and Time Zones

All times are in EDT time to prevent confusion due to time zone crossing. See the GJS6221 flight status page for this flight to view local times or setup timezone preferences in your user account.

Time Position Orientation Groundspeed Altitude Reporting Facility
EDT Latitude Longitude Course Direction KTS MPH feet Rate Location/Type
Mon 07:22:09 AM 45.4333 -73.7500 189° South 140 161 1,000  Level Montreal Center
Mon 07:23:09 AM 45.4000 -73.7667 199° South 200 230 2,800 2,050 Climbing Montreal Center
Mon 07:24:09 AM 45.3333 -73.8000 199° South 270 311 5,100 2,650 Climbing Montreal Center
Mon 07:25:09 AM 45.2500 -73.8000 180° South 290 334 8,100 2,600 Climbing Montreal Center
Mon 07:26:09 AM 45.1667 -73.8000 180° South 310 357 10,300 2,000 Climbing Montreal Center
Mon 07:27:00 AM 44.8322 -74.1067 189° South  Level FlightAware Approximate
Mon 07:27:09 AM 45.0667 -73.8167 187° South 360 414 12,100  Level Montreal Center
Mon 07:28:09 AM 44.9667 -73.8167 180° South 390 449 14,200 2,250 Climbing Montreal Center
Mon 07:29:09 AM 44.8500 -73.8000 174° South 400 460 16,600 2,150 Climbing Montreal Center
Mon 07:30:09 AM 44.7500 -73.8000 180° South 400 460 18,500 2,050 Climbing Montreal Center
Mon 07:31:09 AM 44.6333 -73.8000 180° South 400 460 20,700 2,000 Climbing Montreal Center
Mon 07:32:09 AM 44.5167 -73.8167 186° South 410 472 22,500 1,600 Climbing Montreal Center
Mon 07:33:09 AM 44.4000 -73.8167 180° South 420 483 23,900 1,450 Climbing Montreal Center
Mon 07:34:09 AM 44.2833 -73.8000 174° South 440 506 25,400 1,350 Climbing Montreal Center
Mon 07:35:09 AM 44.1667 -73.8000 180° South 440 506 26,600 1,150 Climbing Montreal Center
Mon 07:36:09 AM 44.0333 -73.8000 180° South 450 518 27,700 950 Climbing Montreal Center
Mon 07:37:09 AM 43.9167 -73.8167 186° South 460 529 28,500 800 Climbing Montreal Center
Mon 07:38:09 AM 43.7667 -73.8000 175° South 470 541 29,300 800 Climbing Montreal Center
Mon 07:39:09 AM 43.6500 -73.8000 180° South 480 552 30,100 350 Climbing Montreal Center
Mon 07:40:09 AM 43.5167 -73.8000 180° South 490 564 30,000 -1,165 Descending Montreal Center
Mon 07:41:28 AM 43.3322 -73.8103 182° South 499 574 27,400 -2,245 Descending Boston Center
Mon 07:42:28 AM 43.2028 -73.8072 179° South 492 566 24,800 -1,983 Descending Boston Center
Mon 07:43:26 AM 43.0778 -73.8072 180° South 474 545 23,500 -1,462 Descending Boston Center
Mon 07:44:27 AM 42.9528 -73.8103 181° South 460 529 21,900 -1,525 Descending Boston Center
Mon 07:45:28 AM 42.8339 -73.8103 180° South 448 516 20,400 -1,475 Descending Boston Center
Mon 07:46:29 AM 42.7194 -73.7994 176° South 430 495 18,900 -1,220 Descending Boston Center
Mon 07:47:26 AM 42.6258 -73.7803 171° South 418 481 18,000 -458 Descending Boston Center
Mon 07:48:27 AM 42.4867 -73.7492 171° South 427 491 18,000  Level Boston Center
Mon 07:49:26 AM 42.3744 -73.7300 173° South 421 484 18,000  Level Boston Center
Mon 07:50:29 AM 42.2594 -73.7472 186° South 415 478 18,000  Level Boston Center
Mon 07:51:27 AM 42.1447 -73.7617 185° South 415 478 18,000  Level Boston Center
Mon 07:52:28 AM 42.0300 -73.7733 184° South 415 478 18,000  Level Boston Center
Mon 07:53:28 AM 41.9192 -73.7906 187° South 410 472 18,000 -446 Level Boston Center
Mon 07:54:29 AM 41.8275 -73.8025 186° South 374 430 17,100 -1,237 Descending Boston Center
Mon 07:55:39 AM 41.7169 -73.8083 182° South 336 387 15,300 -1,523 Descending Boston Center
Mon 07:56:39 AM 41.6356 -73.8067 179° South 329 379 13,800 -1,648 Descending Boston Center
Mon 07:57:10 AM 41.5667 -73.8000 176° South 320 368 12,800 -1,696 Descending New York TRACON
Mon 07:58:11 AM 41.4833 -73.8000 180° South 314 361 11,200 -1,500 Descending New York TRACON
Mon 07:59:10 AM 41.4000 -73.8000 180° South 307 353 9,800 -1,412 Descending New York TRACON
Mon 08:00:10 AM 41.3167 -73.7667 163° South 312 359 8,400 -900 Descending New York TRACON
Mon 08:01:10 AM 41.2500 -73.7167 151° Southeast 307 353 8,000 -895 Descending New York TRACON
Mon 08:02:04 AM 41.1833 -73.6667 151° Southeast 307 353 6,700 -1,105 Descending New York TRACON
Mon 08:03:04 AM 41.1167 -73.6333 159° South 295 339 5,900 -1,190 Descending New York TRACON
Mon 08:04:05 AM 41.0333 -73.6000 163° South 282 325 4,300 -950 Descending New York TRACON
Mon 08:05:04 AM 40.9667 -73.6000 180° South 275 316 4,000 -151 Descending New York TRACON
Mon 08:06:04 AM 40.8833 -73.6333 197° South 276 318 4,000  Level New York TRACON
Mon 08:07:05 AM 40.8333 -73.6833 217° Southwest 267 307 4,000  Level New York TRACON
Mon 08:08:04 AM 40.7833 -73.7500 225° Southwest 266 306 4,000  Level New York TRACON
Mon 08:09:10 AM 40.7833 -73.8500 270° West 252 290 4,000  Level New York TRACON
Mon 08:10:10 AM 40.7500 -73.9500 246° West 250 288 4,000  Level New York TRACON
Mon 08:11:05 AM 40.7333 -74.0000 246° West 193 222 4,000 -500 Level New York TRACON
Mon 08:12:10 AM 40.7000 -73.9667 143° Southeast 205 236 3,000 -952 Descending New York TRACON
Mon 08:13:11 AM 40.7167 -73.9167 66° East 171 197 2,000 -1,041 Descending New York TRACON
Mon 08:14:11 AM 40.7333 -73.8667 66° East 143 165 900 -800 Descending New York TRACON
Mon 08:15:11 AM 40.7667 -73.8333 37° Northeast 136 157 400 -500 Descending New York TRACON

Login

Don't have an account? Register now (free) for customized features, flight alerts, and more!